createdAt,value
2023-02-08T00:00:01.655Z,79.32
2023-02-08T00:05:05.498Z,79.36
2023-02-08T00:10:10.452Z,79.43
2023-02-08T00:15:13.649Z,79.41
2023-02-08T00:20:17.134Z,79.63
2023-02-08T00:25:19.942Z,79.66
2023-02-08T00:30:22.702Z,79.85
2023-02-08T00:35:25.468Z,79.92
2023-02-08T00:40:28.544Z,79.69
2023-02-08T00:45:32.989Z,80.10
2023-02-08T00:50:35.769Z,80.14
2023-02-08T00:55:38.511Z,80.30
2023-02-08T01:00:41.592Z,80.37
2023-02-08T01:05:44.553Z,79.95
2023-02-08T01:10:48.031Z,80.12
2023-02-08T01:15:51.050Z,79.97
2023-02-08T01:20:53.852Z,79.81
2023-02-08T01:25:56.541Z,79.76
2023-02-08T01:30:59.378Z,79.63
2023-02-08T01:36:02.192Z,79.93
2023-02-08T01:41:06.597Z,79.88
2023-02-08T01:46:09.528Z,79.36
2023-02-08T01:51:20.695Z,79.88
2023-02-08T01:56:34.241Z,79.80
2023-02-08T02:01:40.022Z,80.08
2023-02-08T02:06:46.971Z,80.08
2023-02-08T02:11:51.765Z,80.14
2023-02-08T02:16:54.566Z,79.92
2023-02-08T02:22:25.016Z,79.71
2023-02-08T02:28:01.316Z,79.75
2023-02-08T02:33:15.388Z,79.64
2023-02-08T02:38:46.430Z,79.40
2023-02-08T02:44:00.678Z,79.69
2023-02-08T02:49:19.854Z,79.92
2023-02-08T02:54:34.892Z,79.72
2023-02-08T02:59:39.217Z,79.52
2023-02-08T03:04:41.919Z,79.97
2023-02-08T03:10:04.381Z,79.99
2023-02-08T03:15:33.998Z,80.10
2023-02-08T03:21:18.080Z,80.23
2023-02-08T03:26:45.340Z,80.14
2023-02-08T03:31:56.513Z,80.18
2023-02-08T03:37:08.259Z,80.20
2023-02-08T03:42:19.564Z,80.61
2023-02-08T03:47:29.151Z,80.22
2023-02-08T03:52:33.429Z,80.47
2023-02-08T03:57:54.906Z,80.61
2023-02-08T04:03:04.564Z,80.42
2023-02-08T04:08:07.469Z,80.59
2023-02-08T04:13:10.161Z,80.52
2023-02-08T04:18:13.499Z,80.53
2023-02-08T04:23:16.225Z,80.69
2023-02-08T04:28:18.962Z,81.08
2023-02-08T04:33:21.675Z,80.67
2023-02-08T04:38:24.455Z,80.71
2023-02-08T04:43:27.284Z,80.80
2023-02-08T04:48:30.198Z,80.83
2023-02-08T04:53:33.308Z,80.73
2023-02-08T04:58:36.385Z,80.40
2023-02-08T05:03:39.150Z,80.55
2023-02-08T05:08:42.021Z,80.11
2023-02-08T05:13:44.705Z,80.37
2023-02-08T05:18:47.382Z,80.09
2023-02-08T05:23:51.480Z,80.04
2023-02-08T05:28:54.241Z,79.78
2023-02-08T05:33:57.041Z,79.73
2023-02-08T05:38:59.787Z,79.59
2023-02-08T05:44:02.661Z,79.76
2023-02-08T05:49:05.538Z,79.90
2023-02-08T05:54:08.345Z,80.06
2023-02-08T05:59:11.299Z,80.02
2023-02-08T06:04:14.100Z,79.93
2023-02-08T06:09:16.948Z,79.55
2023-02-08T06:14:19.755Z,79.73
2023-02-08T06:19:22.470Z,79.89
2023-02-08T06:24:34.340Z,79.61
2023-02-08T06:29:37.064Z,79.36
2023-02-08T06:34:39.762Z,79.28
2023-02-08T06:39:42.869Z,79.38
2023-02-08T06:44:54.634Z,79.39
2023-02-08T06:49:58.154Z,78.85
2023-02-08T06:55:01.027Z,79.16
2023-02-08T07:00:04.970Z,78.94
2023-02-08T07:05:08.110Z,78.78
2023-02-08T07:10:10.844Z,78.51
2023-02-08T07:15:13.928Z,77.74
2023-02-08T07:20:16.847Z,77.61
2023-02-08T07:25:19.653Z,77.15
2023-02-08T07:30:22.393Z,77.34
2023-02-08T07:35:25.155Z,76.72
2023-02-08T07:40:27.901Z,76.55
2023-02-08T07:45:30.946Z,77.12
2023-02-08T07:50:33.890Z,77.39
2023-02-08T07:55:36.770Z,77.01
2023-02-08T08:00:39.972Z,75.20
2023-02-08T08:05:44.319Z,75.20
2023-02-08T08:10:47.189Z,74.40
2023-02-08T08:15:50.033Z,74.67
2023-02-08T08:20:52.757Z,74.35
2023-02-08T08:25:55.909Z,73.87
2023-02-08T08:30:58.763Z,74.14
2023-02-08T08:36:01.752Z,73.90
2023-02-08T08:41:14.953Z,74.08
2023-02-08T08:46:18.024Z,73.24
2023-02-08T08:51:21.407Z,73.19
2023-02-08T08:56:24.313Z,72.71
2023-02-08T09:01:27.111Z,71.98
2023-02-08T09:06:30.154Z,70.99
2023-02-08T09:11:36.142Z,70.06
2023-02-08T09:16:41.467Z,70.10
2023-02-08T09:21:44.250Z,69.28
2023-02-08T09:26:47.258Z,68.88
2023-02-08T09:31:54.739Z,69.08
2023-02-08T09:36:59.537Z,69.06
2023-02-08T09:42:13.389Z,66.72
2023-02-08T09:47:37.862Z,66.26
2023-02-08T09:52:42.667Z,66.42
2023-02-08T09:57:51.948Z,67.03
2023-02-08T10:02:59.963Z,66.24
2023-02-08T10:08:03.252Z,65.98
2023-02-08T10:13:40.709Z,64.81
2023-02-08T10:18:57.279Z,64.20
2023-02-08T10:24:14.294Z,64.36
2023-02-08T10:29:27.540Z,63.24
2023-02-08T10:34:36.643Z,62.55
2023-02-08T10:39:39.712Z,62.65
2023-02-08T10:45:22.781Z,62.98
2023-02-08T10:50:36.811Z,61.77
2023-02-08T10:55:43.017Z,57.70
2023-02-08T11:00:48.437Z,54.70
2023-02-08T11:05:52.457Z,52.80
2023-02-08T11:10:55.167Z,49.17
2023-02-08T11:16:04.076Z,46.22
2023-02-08T11:21:11.745Z,46.37
2023-02-08T11:26:31.890Z,44.46
2023-02-08T11:31:36.754Z,42.44
2023-02-08T11:36:47.262Z,40.88
2023-02-08T11:41:55.533Z,39.74
2023-02-08T11:47:04.768Z,37.38
2023-02-08T11:52:25.464Z,35.67
2023-02-08T11:57:28.345Z,34.23
2023-02-08T12:02:37.454Z,33.77
2023-02-08T12:07:55.412Z,33.92
2023-02-08T12:13:24.683Z,32.63
2023-02-08T12:18:48.632Z,30.89
2023-02-08T12:23:59.197Z,31.24
2023-02-08T12:29:11.226Z,30.67
2023-02-08T12:34:27.694Z,30.31
2023-02-08T12:40:10.237Z,29.54
2023-02-08T12:45:50.849Z,29.55
2023-02-08T12:51:05.061Z,29.07
2023-02-08T12:56:21.155Z,28.15
2023-02-08T13:01:45.203Z,28.81
2023-02-08T13:06:57.755Z,29.15
2023-02-08T13:12:17.720Z,31.52
2023-02-08T13:17:54.147Z,33.52
2023-02-08T13:23:10.136Z,34.99
2023-02-08T13:28:22.739Z,36.78
2023-02-08T13:34:01.361Z,39.24
2023-02-08T13:39:24.375Z,41.14
2023-02-08T13:44:40.322Z,43.08
2023-02-08T13:49:50.049Z,43.84
2023-02-08T13:55:33.964Z,45.27
2023-02-08T14:00:56.658Z,46.51
2023-02-08T14:06:22.528Z,46.80
2023-02-08T14:11:28.747Z,47.05
2023-02-08T14:16:41.602Z,47.50
2023-02-08T14:22:07.707Z,48.19
2023-02-08T14:27:28.567Z,49.37
2023-02-08T14:32:35.695Z,50.49
2023-02-08T14:37:38.846Z,50.77
2023-02-08T14:43:16.698Z,51.61
2023-02-08T14:48:31.450Z,52.85
2023-02-08T14:53:44.729Z,53.97
2023-02-08T14:59:00.331Z,54.60
2023-02-08T15:04:03.825Z,55.14
2023-02-08T15:09:16.475Z,55.78
2023-02-08T15:14:21.254Z,56.50
2023-02-08T15:19:38.520Z,57.02
2023-02-08T15:24:53.814Z,57.79
2023-02-08T15:29:56.961Z,58.10
2023-02-08T15:35:01.881Z,58.57
2023-02-08T15:40:05.236Z,58.95
2023-02-08T15:45:24.618Z,59.61
2023-02-08T15:50:29.193Z,60.42
2023-02-08T15:55:37.303Z,61.49
2023-02-08T16:00:44.761Z,61.79
2023-02-08T16:06:02.493Z,61.96
2023-02-08T16:11:20.397Z,62.93
2023-02-08T16:16:26.672Z,63.23
2023-02-08T16:21:38.717Z,64.05
2023-02-08T16:27:19.462Z,64.63
2023-02-08T16:32:49.193Z,65.55
2023-02-08T16:38:00.367Z,65.52
2023-02-08T16:43:32.162Z,65.94
2023-02-08T16:48:36.786Z,66.02
2023-02-08T16:53:42.633Z,66.40
2023-02-08T16:58:46.014Z,66.30
2023-02-08T17:03:50.421Z,66.72
2023-02-08T17:08:53.453Z,66.14
2023-02-08T17:13:58.440Z,66.66
2023-02-08T17:19:01.881Z,67.16
2023-02-08T17:24:05.340Z,67.51
2023-02-08T17:29:08.401Z,67.44
2023-02-08T17:34:11.392Z,67.72
2023-02-08T17:39:15.250Z,68.13
2023-02-08T17:44:21.083Z,68.00
2023-02-08T17:49:23.816Z,68.35
2023-02-08T17:54:26.557Z,68.11
2023-02-08T17:59:29.478Z,68.90
2023-02-08T18:04:32.323Z,69.31
2023-02-08T18:09:35.402Z,68.89
2023-02-08T18:14:40.540Z,69.45
2023-02-08T18:19:45.240Z,69.71
2023-02-08T18:24:49.435Z,69.77
2023-02-08T18:29:53.054Z,69.85
2023-02-08T18:34:58.665Z,70.52
2023-02-08T18:40:01.643Z,70.60
2023-02-08T18:45:05.356Z,70.45
2023-02-08T18:50:09.658Z,71.35
2023-02-08T18:55:12.485Z,71.59
2023-02-08T19:00:16.212Z,71.21
2023-02-08T19:05:19.088Z,71.35
2023-02-08T19:10:21.855Z,71.19
2023-02-08T19:15:24.562Z,71.10
2023-02-08T19:20:27.355Z,70.86
2023-02-08T19:25:30.868Z,71.46
2023-02-08T19:30:33.854Z,71.92
2023-02-08T19:35:38.506Z,72.05
2023-02-08T19:40:41.556Z,71.75
2023-02-08T19:45:45.038Z,71.83
2023-02-08T19:50:59.759Z,71.58
2023-02-08T19:56:09.128Z,71.34
2023-02-08T20:01:18.185Z,71.58
2023-02-08T20:06:23.939Z,71.20
2023-02-08T20:11:30.884Z,71.72
2023-02-08T20:16:34.456Z,71.95
2023-02-08T20:21:40.351Z,72.49
2023-02-08T20:26:46.331Z,72.83
2023-02-08T20:31:53.512Z,72.94
2023-02-08T20:37:11.624Z,72.93
2023-02-08T20:42:15.687Z,73.34
2023-02-08T20:47:19.793Z,73.18
2023-02-08T20:52:22.623Z,73.26
2023-02-08T20:57:25.476Z,73.06
2023-02-08T21:02:28.284Z,73.33
2023-02-08T21:07:31.296Z,73.23
2023-02-08T21:12:34.072Z,73.49
2023-02-08T21:17:39.891Z,73.01
2023-02-08T21:22:43.489Z,72.89
2023-02-08T21:27:46.298Z,73.11
2023-02-08T21:32:49.164Z,73.12
2023-02-08T21:37:51.907Z,73.13
2023-02-08T21:42:54.678Z,73.03
2023-02-08T21:47:58.981Z,72.81
2023-02-08T21:53:20.259Z,72.96
2023-02-08T21:58:23.872Z,72.99
2023-02-08T22:03:27.890Z,73.09
2023-02-08T22:08:30.686Z,73.13
2023-02-08T22:13:34.804Z,73.54
2023-02-08T22:18:41.277Z,73.57
2023-02-08T22:23:44.038Z,73.50
2023-02-08T22:28:46.833Z,73.71
2023-02-08T22:33:53.064Z,73.56
2023-02-08T22:38:56.494Z,73.20
2023-02-08T22:43:59.261Z,72.95
2023-02-08T22:49:02.020Z,73.08
2023-02-08T22:54:04.931Z,73.14
2023-02-08T22:59:07.667Z,73.26
2023-02-08T23:04:10.829Z,73.20
2023-02-08T23:09:16.002Z,73.64
2023-02-08T23:14:18.874Z,74.23
2023-02-08T23:19:21.739Z,74.65
2023-02-08T23:24:24.595Z,74.76
2023-02-08T23:29:27.411Z,74.61
2023-02-08T23:34:30.284Z,74.18
2023-02-08T23:39:33.924Z,74.51
2023-02-08T23:44:37.336Z,74.22
2023-02-08T23:49:40.119Z,74.49
2023-02-08T23:54:44.834Z,74.76
2023-02-08T23:59:47.672Z,74.36
